Time;durP1;ratioP1;P1;durP2;ratioP2;P2;SDS_P1;SDS_P2;PMS_P1;PMS_P2;Temp;Humidity;BMP_temperature;BMP_pressure;BME280_temperature;BME280_humidity;BME280_pressure;Samples;Min_cycle;Max_cycle;Signal;HPM_P1;HPM_P2
2023/07/20 00:02:24;;;;;;;;;;;;;;;;;;5011785;28;20434;-66
2023/07/20 00:04:50;;;;;;;;;;;;;;;;;;5011782;28;20012;-66
2023/07/20 00:07:15;;;;;;;;;;;;;;;;;;5011362;28;19948;-65
2023/07/20 00:09:41;;;;;;;;;;;;;;;;;;5011577;28;19934;-65
2023/07/20 00:12:07;;;;;;;;;;;;;;;;;;5011668;28;19925;-65
2023/07/20 00:14:34;;;;;;;;;;;;;;;;;;5011619;28;20414;-65
2023/07/20 00:17:00;;;;;;;;;;;;;;;;;;5010247;28;19972;-66
2023/07/20 00:19:25;;;;;;;;;;;;;;;;;;5013521;28;19968;-66
2023/07/20 00:21:51;;;;;;;;;;;;;;;;;;5015128;28;19926;-65
2023/07/20 00:24:17;;;;;;;;;;;;;;;;;;5013802;28;19996;-66
2023/07/20 00:26:43;;;;;;;;;;;;;;;;;;5015143;28;20000;-65
2023/07/20 00:29:09;;;;;;;;;;;;;;;;;;5014964;28;19925;-66
2023/07/20 00:31:36;;;;;;;;;;;;;;;;;;5014685;28;19956;-66
2023/07/20 00:34:02;;;;;;;;;;;;;;;;;;5013533;28;19937;-65
2023/07/20 00:36:28;;;;;;;;;;;;;;;;;;5013972;28;19926;-66
2023/07/20 00:38:54;;;;;;;;;;;;;;;;;;5013922;28;20453;-66
2023/07/20 00:41:20;;;;;;;;;;;;;;;;;;4996624;28;19929;-66
2023/07/20 00:43:46;;;;;;;;;;;;;;;;;;5014409;28;19925;-65
2023/07/20 00:46:12;;;;;;;;;;;;;;;;;;5014280;28;19925;-66
2023/07/20 00:48:38;;;;;;;;;;;;;;;;;;5013773;28;19921;-65
2023/07/20 00:51:04;;;;;;;;;;;;;;;;;;5013520;28;20046;-66
2023/07/20 00:53:30;;;;;;;;;;;;;;;;;;5013631;28;19925;-66
2023/07/20 00:55:55;;;;;;;;;;;;;;;;;;5014143;28;19921;-65
2023/07/20 00:58:21;;;;;;;;;;;;;;;;;;5013836;28;19922;-66
2023/07/20 01:00:47;;;;;;;;;;;;;;;;;;5013998;28;19937;-66
2023/07/20 01:03:13;;;;;;;;;;;;;;;;;;5012594;28;19929;-65
2023/07/20 01:05:39;;;;;;;;;;;;;;;;;;5012288;28;19921;-66
2023/07/20 01:08:05;;;;;;;;;;;;;;;;;;5013126;28;19921;-65
2023/07/20 01:10:31;;;;;;;;;;;;;;;;;;5012097;28;20066;-65
2023/07/20 01:12:57;;;;;;;;;;;;;;;;;;5013539;28;20377;-66
2023/07/20 01:15:23;;;;;;;;;;;;;;;;;;5014095;28;19921;-64
2023/07/20 01:17:49;;;;;;;;;;;;;;;;;;5014045;28;19921;-64
2023/07/20 01:20:15;;;;;;;;;;;;;;;;;;5013935;28;19925;-64
2023/07/20 01:22:41;;;;;;;;;;;;;;;;;;5013970;28;19929;-64
2023/07/20 01:25:07;;;;;;;;;;;;;;;;;;5013936;28;20413;-64
2023/07/20 01:27:33;;;;;;;;;;;;;;;;;;5013943;28;19922;-64
2023/07/20 01:29:59;;;;;;;;;;;;;;;;;;5013256;28;19925;-64
2023/07/20 01:32:25;;;;;;;;;;;;;;;;;;4996012;28;20303;-64
2023/07/20 01:34:51;;;;;;;;;;;;;;;;;;5013689;28;19921;-64
2023/07/20 01:37:17;;;;;;;;;;;;;;;;;;5013511;28;20394;-65
2023/07/20 01:39:43;;;;;;;;;;;;;;;;;;5012210;28;19925;-66
2023/07/20 01:42:09;;;;;;;;;;;;;;;;;;5013533;28;19926;-65
2023/07/20 01:44:34;;;;;;;;;;;;;;;;;;5013680;28;19929;-65
2023/07/20 01:47:00;;;;;;;;;;;;;;;;;;5013525;28;19921;-64
2023/07/20 01:49:26;;;;;;;;;;;;;;;;;;5013452;28;20032;-65
2023/07/20 01:51:52;;;;;;;;;;;;;;;;;;5013422;28;20031;-65
2023/07/20 01:54:18;;;;;;;;;;;;;;;;;;5013654;28;19922;-64
2023/07/20 01:56:44;;;;;;;;;;;;;;;;;;5012311;28;19932;-64
2023/07/20 01:59:10;;;;;;;;;;;;;;;;;;5011994;28;20020;-65
2023/07/20 02:01:36;;;;;;;;;;;;;;;;;;5013262;28;19925;-66
2023/07/20 02:04:02;;;;;;;;;;;;;;;;;;5011763;28;20299;-64
2023/07/20 02:06:27;;;;;;;;;;;;;;;;;;5013001;28;19932;-65
2023/07/20 02:08:54;;;;;;;;;;;;;;;;;;5013268;28;19929;-65
2023/07/20 02:11:19;;;;;;;;;;;;;;;;;;5011759;28;19948;-64
2023/07/20 02:13:45;;;;;;;;;;;;;;;;;;5011737;28;19972;-65
2023/07/20 02:16:11;;;;;;;;;;;;;;;;;;5012891;28;20358;-65
2023/07/20 02:18:37;;;;;;;;;;;;;;;;;;5012647;28;19925;-64
2023/07/20 02:21:03;;;;;;;;;;;;;;;;;;5012816;28;19928;-66
2023/07/20 02:23:29;;;;;;;;;;;;;;;;;;5012687;28;20012;-64
2023/07/20 02:25:55;;;;;;;;;;;;;;;;;;5012818;28;20668;-64
2023/07/20 02:28:21;;;;;;;;;;;;;;;;;;5012194;28;19925;-64
2023/07/20 02:30:47;;;;;;;;;;;;;;;;;;5012789;28;19921;-65
2023/07/20 02:33:13;;;;;;;;;;;;;;;;;;5011219;28;19928;-64
2023/07/20 02:35:39;;;;;;;;;;;;;;;;;;5012579;28;20390;-64
2023/07/20 02:38:06;;;;;;;;;;;;;;;;;;5012586;28;20024;-65
2023/07/20 02:40:32;;;;;;;;;;;;;;;;;;5010668;28;19931;-65
2023/07/20 02:42:58;;;;;;;;;;;;;;;;;;5011764;28;19929;-65
2023/07/20 02:45:24;;;;;;;;;;;;;;;;;;5012310;28;19921;-66
2023/07/20 02:47:50;;;;;;;;;;;;;;;;;;5012374;28;19925;-64
2023/07/20 02:50:15;;;;;;;;;;;;;;;;;;5012392;28;19925;-66
2023/07/20 02:52:41;;;;;;;;;;;;;;;;;;5012600;28;20021;-65
2023/07/20 02:55:07;;;;;;;;;;;;;;;;;;5012374;28;19944;-64
2023/07/20 02:57:33;;;;;;;;;;;;;;;;;;5012605;28;20282;-66
2023/07/20 02:59:59;;;;;;;;;;;;;;;;;;5012094;28;19921;-64
2023/07/20 03:02:25;;;;;;;;;;;;;;;;;;5011858;28;19929;-65
2023/07/20 03:04:51;;;;;;;;;;;;;;;;;;5011534;28;20013;-64
2023/07/20 03:07:17;;;;;;;;;;;;;;;;;;5011663;28;19928;-65
2023/07/20 03:09:43;;;;;;;;;;;;;;;;;;5010078;28;19930;-64
2023/07/20 03:12:09;;;;;;;;;;;;;;;;;;5011431;28;19921;-65
2023/07/20 03:14:35;;;;;;;;;;;;;;;;;;5011630;28;19922;-64
2023/07/20 03:17:01;;;;;;;;;;;;;;;;;;5011927;28;19928;-64
2023/07/20 03:19:28;;;;;;;;;;;;;;;;;;5011850;28;20363;-64
2023/07/20 03:21:53;;;;;;;;;;;;;;;;;;5012260;28;19938;-64
2023/07/20 03:24:20;;;;;;;;;;;;;;;;;;5012079;28;19928;-65
2023/07/20 03:26:46;;;;;;;;;;;;;;;;;;5012073;28;19926;-64
2023/07/20 03:29:12;;;;;;;;;;;;;;;;;;5011883;28;19925;-64
2023/07/20 03:31:37;;;;;;;;;;;;;;;;;;5011888;28;19922;-64
2023/07/20 03:34:05;;;;;;;;;;;;;;;;;;5011935;28;20001;-65
2023/07/20 03:36:31;;;;;;;;;;;;;;;;;;5011899;28;19925;-64
2023/07/20 03:38:57;;;;;;;;;;;;;;;;;;5011779;28;19925;-64
2023/07/20 03:41:23;;;;;;;;;;;;;;;;;;5010372;28;19928;-65
2023/07/20 03:43:50;;;;;;;;;;;;;;;;;;5011277;28;19925;-64
2023/07/20 03:46:16;;;;;;;;;;;;;;;;;;5011377;28;19926;-64
2023/07/20 03:48:42;;;;;;;;;;;;;;;;;;5011918;28;19922;-64
2023/07/20 03:51:07;;;;;;;;;;;;;;;;;;5010298;28;19921;-64
2023/07/20 03:53:33;;;;;;;;;;;;;;;;;;5012698;28;20020;-64
2023/07/20 03:55:59;;;;;;;;;;;;;;;;;;5015531;28;19925;-64
2023/07/20 03:58:26;;;;;;;;;;;;;;;;;;5015590;28;19921;-64
2023/07/20 04:00:51;;;;;;;;;;;;;;;;;;5015257;28;19944;-64
2023/07/20 04:03:17;;;;;;;;;;;;;;;;;;5015638;28;20392;-64
2023/07/20 04:05:43;;;;;;;;;;;;;;;;;;5015501;28;20319;-65
2023/07/20 04:08:11;;;;;;;;;;;;;;;;;;5013955;28;20390;-65
2023/07/20 04:10:36;;;;;;;;;;;;;;;;;;5015407;28;20036;-64
2023/07/20 04:13:02;;;;;;;;;;;;;;;;;;5015527;28;20415;-65
2023/07/20 04:15:28;;;;;;;;;;;;;;;;;;5013780;28;19931;-64
2023/07/20 04:17:56;;;;;;;;;;;;;;;;;;5015498;28;19922;-64
2023/07/20 04:20:22;;;;;;;;;;;;;;;;;;5014980;28;20338;-64
2023/07/20 04:22:48;;;;;;;;;;;;;;;;;;5015034;28;20459;-64
2023/07/20 04:25:14;;;;;;;;;;;;;;;;;;5014961;28;19925;-64
2023/07/20 04:27:39;;;;;;;;;;;;;;;;;;5015020;28;19930;-65
2023/07/20 04:30:05;;;;;;;;;;;;;;;;;;5014823;28;19921;-65
2023/07/20 04:32:33;;;;;;;;;;;;;;;;;;5015146;28;19930;-64
2023/07/20 04:34:59;;;;;;;;;;;;;;;;;;5014931;28;19975;-64
2023/07/20 04:37:25;;;;;;;;;;;;;;;;;;5015004;28;20008;-65
2023/07/20 04:39:51;;;;;;;;;;;;;;;;;;5014803;28;20379;-64
2023/07/20 04:42:17;;;;;;;;;;;;;;;;;;5014806;28;19926;-65
2023/07/20 04:44:43;;;;;;;;;;;;;;;;;;5014747;28;20307;-65
2023/07/20 04:47:09;;;;;;;;;;;;;;;;;;5014741;28;19932;-65
2023/07/20 04:49:35;;;;;;;;;;;;;;;;;;5014795;28;20513;-65
2023/07/20 04:52:01;;;;;;;;;;;;;;;;;;5014392;28;20326;-65
2023/07/20 04:54:27;;;;;;;;;;;;;;;;;;5014575;28;19925;-66
2023/07/20 04:56:53;;;;;;;;;;;;;;;;;;5013182;28;20276;-65
2023/07/20 04:59:19;;;;;;;;;;;;;;;;;;5014303;28;19928;-65
2023/07/20 05:01:45;;;;;;;;;;;;;;;;;;5014301;28;19995;-65
2023/07/20 05:04:11;;;;;;;;;;;;;;;;;;5012416;28;19972;-65
2023/07/20 05:06:38;;;;;;;;;;;;;;;;;;5011882;28;19969;-66
2023/07/20 05:09:05;;;;;;;;;;;;;;;;;;5013797;28;20449;-64
2023/07/20 05:11:31;;;;;;;;;;;;;;;;;;5013253;28;19926;-65
2023/07/20 05:13:57;;;;;;;;;;;;;;;;;;5013516;28;19928;-64
2023/07/20 05:16:22;;;;;;;;;;;;;;;;;;5013705;28;19993;-65
2023/07/20 05:18:48;;;;;;;;;;;;;;;;;;5014139;28;19929;-64
2023/07/20 05:21:14;;;;;;;;;;;;;;;;;;4995424;28;19928;-65
2023/07/20 05:23:40;;;;;;;;;;;;;;;;;;5012807;28;20468;-65
2023/07/20 05:26:06;;;;;;;;;;;;;;;;;;5013728;28;20020;-65
2023/07/20 05:28:32;;;;;;;;;;;;;;;;;;5013592;28;19936;-65
2023/07/20 05:30:59;;;;;;;;;;;;;;;;;;5013854;28;19980;-65
2023/07/20 05:33:25;;;;;;;;;;;;;;;;;;5013758;28;20296;-66
2023/07/20 05:35:51;;;;;;;;;;;;;;;;;;5013629;28;19926;-65
2023/07/20 05:38:17;;;;;;;;;;;;;;;;;;5013673;28;19928;-65
2023/07/20 05:40:43;;;;;;;;;;;;;;;;;;5013254;28;19925;-64
2023/07/20 05:43:09;;;;;;;;;;;;;;;;;;5013590;28;20275;-65
2023/07/20 05:45:34;;;;;;;;;;;;;;;;;;5013559;28;19921;-65
2023/07/20 05:48:00;;;;;;;;;;;;;;;;;;5013392;28;19928;-65
2023/07/20 05:50:26;;;;;;;;;;;;;;;;;;5011939;28;20036;-65
2023/07/20 05:52:52;;;;;;;;;;;;;;;;;;5013174;28;19929;-65
2023/07/20 05:55:18;;;;;;;;;;;;;;;;;;5013147;28;19965;-66
2023/07/20 05:57:44;;;;;;;;;;;;;;;;;;5013209;28;19927;-65
2023/07/20 06:00:12;;;;;;;;;;;;;;;;;;5013313;28;20020;-65
2023/07/20 06:02:38;;;;;;;;;;;;;;;;;;5011856;28;19926;-66
2023/07/20 06:05:03;;;;;;;;;;;;;;;;;;5013215;28;19925;-65
2023/07/20 06:07:29;;;;;;;;;;;;;;;;;;5012776;28;19929;-65
2023/07/20 06:09:55;;;;;;;;;;;;;;;;;;5013079;28;19925;-66
2023/07/20 06:12:21;;;;;;;;;;;;;;;;;;5012514;28;19980;-65
2023/07/20 06:14:47;;;;;;;;;;;;;;;;;;5012440;28;19933;-66
2023/07/20 06:17:13;;;;;;;;;;;;;;;;;;5012153;28;20012;-66
2023/07/20 06:19:39;;;;;;;;;;;;;;;;;;5012745;28;19999;-65
2023/07/20 06:22:05;;;;;;;;;;;;;;;;;;5012105;28;20410;-66
2023/07/20 06:24:31;;;;;;;;;;;;;;;;;;5011959;28;19930;-66
2023/07/20 06:26:57;;;;;;;;;;;;;;;;;;5011808;28;19922;-65
2023/07/20 06:29:23;;;;;;;;;;;;;;;;;;5011761;28;19929;-66
2023/07/20 06:31:49;;;;;;;;;;;;;;;;;;5012129;28;19932;-66
2023/07/20 06:34:15;;;;;;;;;;;;;;;;;;5012000;28;20444;-66
2023/07/20 06:36:41;;;;;;;;;;;;;;;;;;5011906;28;20020;-66
2023/07/20 06:39:07;;;;;;;;;;;;;;;;;;5010855;28;19928;-67
2023/07/20 06:41:32;;;;;;;;;;;;;;;;;;4994903;28;19930;-66
2023/07/20 06:43:58;;;;;;;;;;;;;;;;;;5012688;28;19925;-66
2023/07/20 06:46:25;;;;;;;;;;;;;;;;;;5012588;28;19922;-66
2023/07/20 06:48:50;;;;;;;;;;;;;;;;;;5012534;28;19922;-66
2023/07/20 06:51:17;;;;;;;;;;;;;;;;;;5012493;28;19928;-66
2023/07/20 06:53:43;;;;;;;;;;;;;;;;;;5010995;28;19979;-66
2023/07/20 06:56:09;;;;;;;;;;;;;;;;;;5012661;28;19925;-66
2023/07/20 06:58:35;;;;;;;;;;;;;;;;;;5012177;28;19926;-66
2023/07/20 07:01:01;;;;;;;;;;;;;;;;;;5011058;28;19968;-66
2023/07/20 07:03:27;;;;;;;;;;;;;;;;;;5011979;28;20376;-66
2023/07/20 07:05:53;;;;;;;;;;;;;;;;;;5011843;28;19925;-66
2023/07/20 07:08:18;;;;;;;;;;;;;;;;;;5010020;28;20562;-67
2023/07/20 07:10:44;;;;;;;;;;;;;;;;;;5011875;28;20031;-67
2023/07/20 07:13:10;;;;;;;;;;;;;;;;;;5011703;28;19921;-66
2023/07/20 07:15:36;;;;;;;;;;;;;;;;;;5011616;28;19921;-66
2023/07/20 07:18:03;;;;;;;;;;;;;;;;;;5011888;28;19933;-66
2023/07/20 07:20:29;;;;;;;;;;;;;;;;;;5012031;28;19922;-66
2023/07/20 07:22:55;;;;;;;;;;;;;;;;;;5021061;22;19925;-65
2023/07/20 07:25:21;;;;;;;;;;;;;;;;;;5012522;28;20015;-65
2023/07/20 07:27:47;;;;;;;;;;;;;;;;;;5015088;28;20398;-65
2023/07/20 07:30:13;;;;;;;;;;;;;;;;;;5017537;28;19925;-65
2023/07/20 07:32:39;;;;;;;;;;;;;;;;;;5017505;28;19921;-66
2023/07/20 07:35:05;;;;;;;;;;;;;;;;;;5018637;28;19925;-65
2023/07/20 07:37:31;;;;;;;;;;;;;;;;;;5018607;28;19933;-65
2023/07/20 07:39:57;;;;;;;;;;;;;;;;;;5017271;28;20048;-65
2023/07/20 07:42:23;;;;;;;;;;;;;;;;;;5018576;28;20032;-65
2023/07/20 07:44:49;;;;;;;;;;;;;;;;;;5018455;28;20052;-65
2023/07/20 07:47:15;;;;;;;;;;;;;;;;;;5018513;28;20008;-65
2023/07/20 07:49:41;;;;;;;;;;;;;;;;;;5018191;28;19928;-65
2023/07/20 07:52:06;;;;;;;;;;;;;;;;;;5018363;28;20030;-65
2023/07/20 07:54:32;;;;;;;;;;;;;;;;;;5018482;28;20020;-65
2023/07/20 07:56:58;;;;;;;;;;;;;;;;;;5018689;28;20358;-65
2023/07/20 07:59:24;;;;;;;;;;;;;;;;;;5018119;28;19922;-65
2023/07/20 08:01:50;;;;;;;;;;;;;;;;;;5018256;28;19929;-65
2023/07/20 08:04:16;;;;;;;;;;;;;;;;;;5018191;28;19956;-65
2023/07/20 08:06:42;;;;;;;;;;;;;;;;;;5018233;28;19975;-65
2023/07/20 08:09:08;;;;;;;;;;;;;;;;;;5018287;28;20374;-65
2023/07/20 08:11:34;;;;;;;;;;;;;;;;;;5018410;28;19929;-64
2023/07/20 08:14:00;;;;;;;;;;;;;;;;;;5018262;28;20542;-65
2023/07/20 08:16:28;;;;;;;;;;;;;;;;;;5017445;28;22294;-65
2023/07/20 08:18:54;;;;;;;;;;;;;;;;;;5018074;28;19928;-65
2023/07/20 08:21:20;;;;;;;;;;;;;;;;;;5017695;28;19926;-65
2023/07/20 08:23:46;;;;;;;;;;;;;;;;;;5018086;28;19936;-64
2023/07/20 08:26:12;;;;;;;;;;;;;;;;;;5016618;28;20028;-64
2023/07/20 08:28:38;;;;;;;;;;;;;;;;;;5017934;28;19922;-64
2023/07/20 08:31:03;;;;;;;;;;;;;;;;;;5018471;28;19980;-64
2023/07/20 08:33:33;;;;;;;;;;;;;;;;;;5016691;28;19931;-64
2023/07/20 08:35:59;;;;;;;;;;;;;;;;;;5017964;28;20009;-64
2023/07/20 08:38:25;;;;;;;;;;;;;;;;;;5017869;28;20008;-65
2023/07/20 08:40:51;;;;;;;;;;;;;;;;;;5014683;28;19921;-64
2023/07/20 08:43:17;;;;;;;;;;;;;;;;;;5014798;28;20387;-64
2023/07/20 08:45:42;;;;;;;;;;;;;;;;;;5014695;28;19921;-64
2023/07/20 08:48:09;;;;;;;;;;;;;;;;;;5014667;28;19928;-64
2023/07/20 08:50:35;;;;;;;;;;;;;;;;;;5013194;28;20295;-65
2023/07/20 08:53:01;;;;;;;;;;;;;;;;;;5014269;28;19928;-64
2023/07/20 08:55:27;;;;;;;;;;;;;;;;;;5013866;28;19922;-64
2023/07/20 08:57:53;;;;;;;;;;;;;;;;;;5013877;28;19952;-64
2023/07/20 09:00:19;;;;;;;;;;;;;;;;;;5012676;28;19921;-65
2023/07/20 09:02:45;;;;;;;;;;;;;;;;;;5013780;28;19955;-64
2023/07/20 09:05:12;;;;;;;;;;;;;;;;;;5013358;28;19975;-65
2023/07/20 09:07:38;;;;;;;;;;;;;;;;;;5013642;28;19922;-65
2023/07/20 09:10:05;;;;;;;;;;;;;;;;;;5013550;28;19926;-64
2023/07/20 09:12:32;;;;;;;;;;;;;;;;;;5013674;28;20395;-65
2023/07/20 09:14:58;;;;;;;;;;;;;;;;;;5013264;28;19968;-64
2023/07/20 09:17:24;;;;;;;;;;;;;;;;;;5013233;28;19929;-65
2023/07/20 09:19:50;;;;;;;;;;;;;;;;;;5012926;28;19921;-65
2023/07/20 09:22:17;;;;;;;;;;;;;;;;;;5013073;28;19948;-64
2023/07/20 09:24:43;;;;;;;;;;;;;;;;;;5013303;28;19932;-64
2023/07/20 09:27:10;;;;;;;;;;;;;;;;;;5013848;28;20012;-64
2023/07/20 09:29:36;;;;;;;;;;;;;;;;;;5014017;28;19979;-64
2023/07/20 09:32:02;;;;;;;;;;;;;;;;;;5014007;28;20012;-65
2023/07/20 09:34:28;;;;;;;;;;;;;;;;;;5014186;28;20028;-64
2023/07/20 09:36:54;;;;;;;;;;;;;;;;;;5013830;28;20667;-64
2023/07/20 09:39:20;;;;;;;;;;;;;;;;;;5014121;28;19929;-64
2023/07/20 09:41:46;;;;;;;;;;;;;;;;;;5013605;28;19944;-64
2023/07/20 09:44:12;;;;;;;;;;;;;;;;;;4996090;28;19921;-64
2023/07/20 09:46:38;;;;;;;;;;;;;;;;;;5013458;28;20016;-64
2023/07/20 09:49:04;;;;;;;;;;;;;;;;;;5013713;28;19932;-64
2023/07/20 09:51:29;;;;;;;;;;;;;;;;;;5013029;28;19922;-64
2023/07/20 09:53:55;;;;;;;;;;;;;;;;;;5013493;28;20577;-64
2023/07/20 09:56:21;;;;;;;;;;;;;;;;;;5013260;28;19933;-64
2023/07/20 09:58:47;;;;;;;;;;;;;;;;;;5013482;28;19927;-64
2023/07/20 10:01:14;;;;;;;;;;;;;;;;;;5013193;28;19929;-64
2023/07/20 10:03:40;;;;;;;;;;;;;;;;;;5012263;28;19926;-64
2023/07/20 10:06:07;;;;;;;;;;;;;;;;;;5013122;28;19928;-64
2023/07/20 10:08:33;;;;;;;;;;;;;;;;;;5013393;28;19965;-64
2023/07/20 10:11:00;;;;;;;;;;;;;;;;;;5013104;28;19928;-64
2023/07/20 10:13:27;;;;;;;;;;;;;;;;;;5013037;28;20013;-64
2023/07/20 10:15:52;;;;;;;;;;;;;;;;;;5012837;28;20024;-64
2023/07/20 10:18:19;;;;;;;;;;;;;;;;;;5013041;28;20410;-64
2023/07/20 10:20:45;;;;;;;;;;;;;;;;;;5012882;28;19929;-64
2023/07/20 10:23:11;;;;;;;;;;;;;;;;;;5012694;28;19926;-64
2023/07/20 10:25:38;;;;;;;;;;;;;;;;;;5012874;28;19928;-64
2023/07/20 10:28:04;;;;;;;;;;;;;;;;;;5012821;28;20394;-64
2023/07/20 10:30:30;;;;;;;;;;;;;;;;;;5012808;28;19922;-64
2023/07/20 10:32:56;;;;;;;;;;;;;;;;;;5012929;28;19922;-64
2023/07/20 10:35:22;;;;;;;;;;;;;;;;;;5011607;28;19925;-64
2023/07/20 10:37:50;;;;;;;;;;;;;;;;;;5012832;28;19922;-65
2023/07/20 10:40:16;;;;;;;;;;;;;;;;;;5012732;28;19926;-64
2023/07/20 10:42:42;;;;;;;;;;;;;;;;;;5012514;28;20382;-64
2023/07/20 10:45:08;;;;;;;;;;;;;;;;;;5012509;28;19925;-64
2023/07/20 10:47:34;;;;;;;;;;;;;;;;;;5012572;28;20283;-64
2023/07/20 10:50:00;;;;;;;;;;;;;;;;;;5012697;28;19972;-64
2023/07/20 10:52:26;;;;;;;;;;;;;;;;;;5012431;28;19967;-64
2023/07/20 10:54:52;;;;;;;;;;;;;;;;;;5012444;28;20442;-64
2023/07/20 10:57:18;;;;;;;;;;;;;;;;;;5010988;28;19931;-64
2023/07/20 10:59:44;;;;;;;;;;;;;;;;;;5010995;28;19991;-64
2023/07/20 11:02:09;;;;;;;;;;;;;;;;;;5011677;28;19964;-64
2023/07/20 11:04:35;;;;;;;;;;;;;;;;;;5012494;28;19932;-64
2023/07/20 11:07:01;;;;;;;;;;;;;;;;;;5011093;28;20606;-64
2023/07/20 11:09:27;;;;;;;;;;;;;;;;;;5012368;28;19921;-64
2023/07/20 11:11:53;;;;;;;;;;;;;;;;;;5011017;28;19976;-64
2023/07/20 11:14:19;;;;;;;;;;;;;;;;;;5012056;28;19929;-64
2023/07/20 11:16:45;;;;;;;;;;;;;;;;;;5010294;28;19932;-64
2023/07/20 11:19:11;;;;;;;;;;;;;;;;;;5011463;28;19928;-64
2023/07/20 11:21:38;;;;;;;;;;;;;;;;;;5009955;28;20580;-65
2023/07/20 11:24:04;;;;;;;;;;;;;;;;;;5011356;28;19926;-66
2023/07/20 11:26:29;;;;;;;;;;;;;;;;;;5011313;28;19922;-64
2023/07/20 11:28:55;;;;;;;;;;;;;;;;;;5011505;28;19926;-64
2023/07/20 11:31:21;;;;;;;;;;;;;;;;;;5012165;28;19925;-65
2023/07/20 11:33:47;;;;;;;;;;;;;;;;;;5011967;28;19921;-64
2023/07/20 11:36:13;;;;;;;;;;;;;;;;;;5010837;28;19972;-64
2023/07/20 11:38:39;;;;;;;;;;;;;;;;;;4991282;28;19922;-64
2023/07/20 11:41:05;;;;;;;;;;;;;;;;;;4992269;28;19937;-64
2023/07/20 11:43:31;;;;;;;;;;;;;;;;;;4992182;28;19926;-64
2023/07/20 11:45:57;;;;;;;;;;;;;;;;;;4992406;28;19929;-64
2023/07/20 11:48:23;;;;;;;;;;;;;;;;;;4992215;28;19984;-64
2023/07/20 11:50:48;;;;;;;;;;;;;;;;;;4992259;28;19972;-64
2023/07/20 11:53:14;;;;;;;;;;;;;;;;;;4992103;28;20000;-64
2023/07/20 11:55:40;;;;;;;;;;;;;;;;;;5003384;28;19997;-64
2023/07/20 11:58:06;;;;;;;;;;;;;;;;;;5011683;28;19922;-64
2023/07/20 12:00:32;;;;;;;;;;;;;;;;;;5011633;28;20003;-64
2023/07/20 12:02:58;;;;;;;;;;;;;;;;;;4994040;28;19956;-64
2023/07/20 12:05:24;;;;;;;;;;;;;;;;;;5011866;28;19926;-64
2023/07/20 12:07:51;;;;;;;;;;;;;;;;;;5011688;28;19996;-64
2023/07/20 12:10:17;;;;;;;;;;;;;;;;;;5011787;28;19961;-64
2023/07/20 12:12:43;;;;;;;;;;;;;;;;;;5011461;28;19960;-64
2023/07/20 12:15:09;;;;;;;;;;;;;;;;;;5014849;28;20298;-64
2023/07/20 12:17:35;;;;;;;;;;;;;;;;;;5015256;28;20402;-64
2023/07/20 12:20:01;;;;;;;;;;;;;;;;;;5015306;28;19932;-64
2023/07/20 12:22:27;;;;;;;;;;;;;;;;;;5013743;28;19925;-64
2023/07/20 12:24:53;;;;;;;;;;;;;;;;;;5015111;28;19972;-64
2023/07/20 12:27:19;;;;;;;;;;;;;;;;;;5015125;28;19925;-64
2023/07/20 12:29:44;;;;;;;;;;;;;;;;;;5015235;28;20352;-64
2023/07/20 12:32:10;;;;;;;;;;;;;;;;;;5015302;28;19929;-64
2023/07/20 12:34:38;;;;;;;;;;;;;;;;;;5015007;28;20030;-64
2023/07/20 12:37:04;;;;;;;;;;;;;;;;;;5014841;28;19921;-64
2023/07/20 12:39:31;;;;;;;;;;;;;;;;;;5014646;28;20425;-64
2023/07/20 12:41:57;;;;;;;;;;;;;;;;;;5014753;28;20147;-64
2023/07/20 12:44:23;;;;;;;;;;;;;;;;;;5014866;28;20008;-65
2023/07/20 12:46:49;;;;;;;;;;;;;;;;;;5014927;28;20012;-65
2023/07/20 12:49:15;;;;;;;;;;;;;;;;;;5014718;28;19975;-65
2023/07/20 12:51:41;;;;;;;;;;;;;;;;;;5013444;28;19921;-65
2023/07/20 12:54:07;;;;;;;;;;;;;;;;;;5014632;28;20268;-64
2023/07/20 12:56:32;;;;;;;;;;;;;;;;;;5014603;28;19932;-65
2023/07/20 12:58:58;;;;;;;;;;;;;;;;;;5014602;28;19921;-65
2023/07/20 13:01:24;;;;;;;;;;;;;;;;;;5014256;28;20016;-64
2023/07/20 13:03:50;;;;;;;;;;;;;;;;;;5014339;28;20133;-64
2023/07/20 13:06:16;;;;;;;;;;;;;;;;;;5014338;28;19922;-64
2023/07/20 13:08:42;;;;;;;;;;;;;;;;;;5012923;28;19981;-64
2023/07/20 13:11:08;;;;;;;;;;;;;;;;;;5012924;28;19936;-64
2023/07/20 13:13:34;;;;;;;;;;;;;;;;;;5014271;28;19936;-64
2023/07/20 13:16:00;;;;;;;;;;;;;;;;;;5012899;28;20295;-64
2023/07/20 13:18:26;;;;;;;;;;;;;;;;;;5014241;28;20266;-64
2023/07/20 13:20:52;;;;;;;;;;;;;;;;;;5013385;28;19925;-65
2023/07/20 13:23:18;;;;;;;;;;;;;;;;;;5013076;28;19936;-64
2023/07/20 13:25:44;;;;;;;;;;;;;;;;;;5012723;28;20383;-65
2023/07/20 13:28:10;;;;;;;;;;;;;;;;;;5013382;28;19922;-64
2023/07/20 13:30:35;;;;;;;;;;;;;;;;;;5013104;28;19925;-64
2023/07/20 13:33:01;;;;;;;;;;;;;;;;;;5013439;28;19932;-64
2023/07/20 13:35:27;;;;;;;;;;;;;;;;;;5012433;28;19921;-64
2023/07/20 13:37:53;;;;;;;;;;;;;;;;;;5013768;28;19979;-64
2023/07/20 13:40:19;;;;;;;;;;;;;;;;;;5013749;28;19927;-64
2023/07/20 13:42:45;;;;;;;;;;;;;;;;;;5012390;28;19925;-64
2023/07/20 13:45:11;;;;;;;;;;;;;;;;;;5013827;28;19922;-64
2023/07/20 13:47:37;;;;;;;;;;;;;;;;;;5013838;28;19928;-64
2023/07/20 13:50:03;;;;;;;;;;;;;;;;;;5013661;28;20394;-64
2023/07/20 13:52:29;;;;;;;;;;;;;;;;;;5013584;28;19956;-64
2023/07/20 13:54:55;;;;;;;;;;;;;;;;;;5013570;28;20267;-64
2023/07/20 13:57:21;;;;;;;;;;;;;;;;;;5013518;28;19967;-64
2023/07/20 13:59:47;;;;;;;;;;;;;;;;;;5013134;28;19929;-64
2023/07/20 14:02:13;;;;;;;;;;;;;;;;;;5013447;28;19933;-64
2023/07/20 14:04:38;;;;;;;;;;;;;;;;;;5013176;28;19992;-64
2023/07/20 14:07:04;;;;;;;;;;;;;;;;;;5013200;28;19929;-64
2023/07/20 14:09:30;;;;;;;;;;;;;;;;;;5013303;28;19936;-64
2023/07/20 14:11:56;;;;;;;;;;;;;;;;;;5013161;28;19926;-64
2023/07/20 14:14:22;;;;;;;;;;;;;;;;;;5013268;28;19921;-64
2023/07/20 14:16:48;;;;;;;;;;;;;;;;;;5012112;28;19944;-64
2023/07/20 14:19:14;;;;;;;;;;;;;;;;;;5013186;28;19980;-64
2023/07/20 14:21:40;;;;;;;;;;;;;;;;;;5012710;28;19929;-64
2023/07/20 14:24:06;;;;;;;;;;;;;;;;;;5013239;28;20393;-64
2023/07/20 14:26:32;;;;;;;;;;;;;;;;;;5012986;28;19928;-64
2023/07/20 14:28:58;;;;;;;;;;;;;;;;;;5012429;28;19945;-64
2023/07/20 14:31:23;;;;;;;;;;;;;;;;;;5011952;28;19929;-64
2023/07/20 14:33:49;;;;;;;;;;;;;;;;;;5012303;28;20455;-65
2023/07/20 14:36:15;;;;;;;;;;;;;;;;;;5011935;28;19922;-65
2023/07/20 14:38:42;;;;;;;;;;;;;;;;;;5010600;28;19980;-64
2023/07/20 14:41:08;;;;;;;;;;;;;;;;;;5011713;28;19925;-64
2023/07/20 14:43:34;;;;;;;;;;;;;;;;;;5011787;28;19921;-64
2023/07/20 14:46:00;;;;;;;;;;;;;;;;;;5011518;28;20331;-64
2023/07/20 14:48:26;;;;;;;;;;;;;;;;;;5010583;28;19944;-64
2023/07/20 14:50:52;;;;;;;;;;;;;;;;;;5011588;28;19922;-64
2023/07/20 14:53:18;;;;;;;;;;;;;;;;;;5010281;28;19929;-64
2023/07/20 14:55:44;;;;;;;;;;;;;;;;;;5012158;28;19930;-64
2023/07/20 14:58:10;;;;;;;;;;;;;;;;;;5011258;28;19921;-64
2023/07/20 15:00:36;;;;;;;;;;;;;;;;;;5012366;28;19929;-64
2023/07/20 15:03:01;;;;;;;;;;;;;;;;;;5012373;28;19929;-64
2023/07/20 15:05:27;;;;;;;;;;;;;;;;;;5012431;28;20359;-64
2023/07/20 15:07:53;;;;;;;;;;;;;;;;;;5012439;28;19929;-64
2023/07/20 15:10:19;;;;;;;;;;;;;;;;;;5010998;28;19926;-64
2023/07/20 15:12:45;;;;;;;;;;;;;;;;;;5012235;28;19921;-64
2023/07/20 15:15:11;;;;;;;;;;;;;;;;;;5012224;28;20024;-64
2023/07/20 15:17:37;;;;;;;;;;;;;;;;;;5012035;28;19928;-64
2023/07/20 15:20:06;;;;;;;;;;;;;;;;;;5012098;28;20084;-64
2023/07/20 15:22:32;;;;;;;;;;;;;;;;;;5011949;28;19925;-65
2023/07/20 15:24:58;;;;;;;;;;;;;;;;;;5011356;28;19925;-64
2023/07/20 15:27:24;;;;;;;;;;;;;;;;;;5011226;28;20338;-64
2023/07/20 15:29:50;;;;;;;;;;;;;;;;;;5011824;28;20032;-64
2023/07/20 15:32:16;;;;;;;;;;;;;;;;;;5011309;28;20501;-64
2023/07/20 15:34:42;;;;;;;;;;;;;;;;;;5011255;28;19928;-65
2023/07/20 15:37:09;;;;;;;;;;;;;;;;;;5011839;28;19921;-64
2023/07/20 15:39:35;;;;;;;;;;;;;;;;;;5011846;28;19929;-64
2023/07/20 15:42:00;;;;;;;;;;;;;;;;;;5011823;28;20012;-64
2023/07/20 15:44:26;;;;;;;;;;;;;;;;;;5011843;28;19926;-64
2023/07/20 15:46:53;;;;;;;;;;;;;;;;;;5011761;28;19921;-64
2023/07/20 15:49:19;;;;;;;;;;;;;;;;;;5013630;28;19926;-64
2023/07/20 15:51:46;;;;;;;;;;;;;;;;;;5015881;28;19982;-65
2023/07/20 15:54:12;;;;;;;;;;;;;;;;;;5015813;28;20537;-64
2023/07/20 15:56:38;;;;;;;;;;;;;;;;;;5014342;28;19929;-65
2023/07/20 15:59:04;;;;;;;;;;;;;;;;;;5015684;28;20005;-64
2023/07/20 16:01:31;;;;;;;;;;;;;;;;;;5015442;28;20349;-64
2023/07/20 16:03:56;;;;;;;;;;;;;;;;;;5015543;28;20375;-64
2023/07/20 16:06:22;;;;;;;;;;;;;;;;;;5015686;28;19925;-65
2023/07/20 16:08:48;;;;;;;;;;;;;;;;;;5015810;28;19975;-64
2023/07/20 16:11:14;;;;;;;;;;;;;;;;;;5014062;28;20342;-64
2023/07/20 16:13:40;;;;;;;;;;;;;;;;;;5015448;28;19968;-64
2023/07/20 16:16:06;;;;;;;;;;;;;;;;;;5015381;28;19921;-64
2023/07/20 16:18:32;;;;;;;;;;;;;;;;;;5015178;28;20432;-64
2023/07/20 16:20:58;;;;;;;;;;;;;;;;;;5015344;28;19936;-64
2023/07/20 16:23:24;;;;;;;;;;;;;;;;;;5015101;28;19956;-64
2023/07/20 16:25:51;;;;;;;;;;;;;;;;;;5015157;28;20363;-64
2023/07/20 16:28:17;;;;;;;;;;;;;;;;;;5015501;28;19957;-64
2023/07/20 16:30:43;;;;;;;;;;;;;;;;;;5015072;28;19967;-64
2023/07/20 16:33:09;;;;;;;;;;;;;;;;;;5014873;28;20395;-64
2023/07/20 16:35:35;;;;;;;;;;;;;;;;;;5015195;28;19925;-64
2023/07/20 16:38:01;;;;;;;;;;;;;;;;;;5014992;28;20310;-64